createdAt,value
2022-09-13T00:00:50.746Z,99131.50
2022-09-13T00:03:19.515Z,99136.66
2022-09-13T00:05:48.795Z,99136.59
2022-09-13T00:08:18.840Z,99132.72
2022-09-13T00:10:47.333Z,99133.16
2022-09-13T00:13:17.557Z,99131.22
2022-09-13T00:15:46.593Z,99125.41
2022-09-13T00:18:14.797Z,99132.13
2022-09-13T00:20:42.869Z,99129.44
2022-09-13T00:23:11.608Z,99122.00
2022-09-13T00:25:41.684Z,99112.16
2022-09-13T00:28:09.743Z,99113.31
2022-09-13T00:30:37.782Z,99115.34
2022-09-13T00:33:05.782Z,99108.97
2022-09-13T00:35:34.020Z,99110.50
2022-09-13T00:38:03.242Z,99103.88
2022-09-13T00:40:31.506Z,99107.81
2022-09-13T00:43:00.917Z,99109.78
2022-09-13T00:45:31.085Z,99107.81
2022-09-13T00:48:02.356Z,99110.56
2022-09-13T00:50:35.996Z,99109.50
2022-09-13T00:53:10.912Z,99104.03
2022-09-13T00:55:44.289Z,99111.47
2022-09-13T00:58:26.922Z,99107.16
2022-09-13T01:00:57.929Z,99107.16
2022-09-13T01:03:28.797Z,99107.19
2022-09-13T01:06:01.365Z,99105.31
2022-09-13T01:08:31.485Z,99100.19
2022-09-13T01:11:02.362Z,99109.97
2022-09-13T01:13:34.853Z,99103.28
2022-09-13T01:16:03.556Z,99105.66
2022-09-13T01:18:31.759Z,99097.09
2022-09-13T01:21:21.065Z,99108.41
2022-09-13T01:24:20.864Z,99106.88
2022-09-13T01:27:08.649Z,99102.97
2022-09-13T01:30:12.671Z,99101.81
2022-09-13T01:33:24.901Z,99104.16
2022-09-13T01:36:07.819Z,99096.38
2022-09-13T01:38:49.026Z,99101.84
2022-09-13T01:41:33.803Z,99100.28
2022-09-13T01:44:10.668Z,99099.09
2022-09-13T01:46:50.449Z,99087.75
2022-09-13T01:49:23.460Z,99093.22
2022-09-13T01:52:00.639Z,99090.91
2022-09-13T01:54:37.718Z,99089.34
2022-09-13T01:57:14.079Z,99094.78
2022-09-13T01:59:52.784Z,99096.00
2022-09-13T02:02:27.610Z,99097.16
2022-09-13T02:05:03.443Z,99091.34
2022-09-13T02:07:36.776Z,99093.28
2022-09-13T02:10:10.884Z,99096.44
2022-09-13T02:12:43.013Z,99090.22
2022-09-13T02:15:15.843Z,99095.28
2022-09-13T02:17:50.905Z,99080.03
2022-09-13T02:20:24.642Z,99087.84
2022-09-13T02:22:58.185Z,99081.97
2022-09-13T02:25:28.918Z,99074.50
2022-09-13T02:28:02.838Z,99079.59
2022-09-13T02:30:35.043Z,99085.09
2022-09-13T02:33:09.748Z,99088.19
2022-09-13T02:35:42.390Z,99083.13
2022-09-13T02:38:16.658Z,99080.00
2022-09-13T02:40:49.638Z,99085.84
2022-09-13T02:43:24.087Z,99077.63
2022-09-13T02:46:00.334Z,99085.09
2022-09-13T02:48:38.357Z,99088.25
2022-09-13T02:51:10.767Z,99086.28
2022-09-13T02:53:44.858Z,99087.47
2022-09-13T02:56:30.455Z,99090.97
2022-09-13T02:59:03.896Z,99092.59
2022-09-13T03:01:32.046Z,99093.38
2022-09-13T03:04:01.661Z,99090.63
2022-09-13T03:06:31.162Z,99097.31
2022-09-13T03:09:04.997Z,99094.59
2022-09-13T03:11:43.025Z,99102.47
2022-09-13T03:14:21.965Z,99105.63
2022-09-13T03:17:04.986Z,99105.25
2022-09-13T03:19:51.077Z,99101.75
2022-09-13T03:22:44.910Z,99112.31
2022-09-13T03:25:21.117Z,99105.31
2022-09-13T03:27:58.310Z,99110.78
2022-09-13T03:30:26.399Z,99110.78
2022-09-13T03:33:04.648Z,99112.38
2022-09-13T03:35:40.963Z,99119.84
2022-09-13T03:38:12.484Z,99107.72
2022-09-13T03:40:48.308Z,99119.06
2022-09-13T03:43:21.263Z,99122.56
2022-09-13T03:45:55.119Z,99122.63
2022-09-13T03:48:24.680Z,99121.06
2022-09-13T03:50:54.613Z,99125.75
2022-09-13T03:53:26.398Z,99123.03
2022-09-13T03:55:54.925Z,99124.19
2022-09-13T03:58:23.763Z,99121.91
2022-09-13T04:00:54.393Z,99119.97
2022-09-13T04:03:22.539Z,99125.41
2022-09-13T04:05:50.640Z,99121.56
2022-09-13T04:08:20.164Z,99118.84
2022-09-13T04:10:52.099Z,99118.06
2022-09-13T04:13:21.156Z,99129.38
2022-09-13T04:15:49.442Z,99126.63
2022-09-13T04:18:17.922Z,99122.69
2022-09-13T04:20:46.012Z,99117.22
2022-09-13T04:23:14.062Z,99126.56
2022-09-13T04:25:43.464Z,99119.91
2022-09-13T04:28:11.623Z,99118.72
2022-09-13T04:30:42.587Z,99127.69
2022-09-13T04:33:10.897Z,99127.66
2022-09-13T04:35:39.570Z,99129.16
2022-09-13T04:38:07.832Z,99135.81
2022-09-13T04:40:36.686Z,99134.22
2022-09-13T04:43:06.263Z,99122.47
2022-09-13T04:45:34.440Z,99134.53
2022-09-13T04:48:03.061Z,99129.78
2022-09-13T04:50:31.849Z,99141.88
2022-09-13T04:52:59.810Z,99133.25
2022-09-13T04:55:27.835Z,99140.97
2022-09-13T04:57:56.661Z,99145.63
2022-09-13T05:00:26.330Z,99151.03
2022-09-13T05:02:57.511Z,99154.94
2022-09-13T05:05:28.869Z,99150.97
2022-09-13T05:07:57.454Z,99146.63
2022-09-13T05:10:25.620Z,99155.59
2022-09-13T05:12:54.654Z,99148.50
2022-09-13T05:15:22.689Z,99150.41
2022-09-13T05:17:52.086Z,99154.66
2022-09-13T05:20:20.334Z,99154.59
2022-09-13T05:22:48.330Z,99154.16
2022-09-13T05:25:16.652Z,99156.91
2022-09-13T05:27:46.745Z,99163.47
2022-09-13T05:30:15.040Z,99156.81
2022-09-13T05:32:43.103Z,99157.19
2022-09-13T05:35:13.811Z,99153.59
2022-09-13T05:37:41.859Z,99162.13
2022-09-13T05:40:12.229Z,99161.31
2022-09-13T05:42:40.840Z,99146.38
2022-09-13T05:45:10.443Z,99157.25
2022-09-13T05:47:38.645Z,99152.38
2022-09-13T05:50:10.667Z,99148.69
2022-09-13T05:52:41.359Z,99141.97
2022-09-13T05:55:10.477Z,99141.16
2022-09-13T05:57:38.686Z,99152.06
2022-09-13T06:00:07.653Z,99150.44
2022-09-13T06:02:45.095Z,99153.09
2022-09-13T06:05:13.447Z,99143.25
2022-09-13T06:07:43.834Z,99147.91
2022-09-13T06:10:13.116Z,99157.19
2022-09-13T06:12:41.502Z,99150.41
2022-09-13T06:15:11.587Z,99153.84
2022-09-13T06:17:39.767Z,99149.41
2022-09-13T06:20:09.289Z,99153.25
2022-09-13T06:22:37.430Z,99159.06
2022-09-13T06:25:07.838Z,99161.72
2022-09-13T06:27:36.042Z,99164.34
2022-09-13T06:30:04.298Z,99165.41
2022-09-13T06:32:32.486Z,99160.19
2022-09-13T06:35:00.646Z,99152.28
2022-09-13T06:37:28.706Z,99170.69
2022-09-13T06:39:58.080Z,99163.22
2022-09-13T06:42:27.755Z,99168.28
2022-09-13T06:44:55.928Z,99173.66
2022-09-13T06:47:25.255Z,99170.00
2022-09-13T06:49:53.625Z,99175.75
2022-09-13T06:52:21.749Z,99167.44
2022-09-13T06:54:49.869Z,99172.81
2022-09-13T06:57:18.047Z,99169.75
2022-09-13T06:59:47.622Z,99174.84
2022-09-13T07:02:15.861Z,99175.53
2022-09-13T07:04:44.542Z,99172.31
2022-09-13T07:07:12.797Z,99176.19
2022-09-13T07:09:41.112Z,99175.63
2022-09-13T07:12:10.093Z,99190.72
2022-09-13T07:14:45.471Z,99181.03
2022-09-13T07:17:15.279Z,99182.31
2022-09-13T07:19:43.432Z,99188.75
2022-09-13T07:22:11.554Z,99185.13
2022-09-13T07:24:40.191Z,99184.13
2022-09-13T07:27:08.278Z,99194.13
2022-09-13T07:29:36.344Z,99200.66
2022-09-13T07:32:04.465Z,99201.81
2022-09-13T07:34:34.178Z,99202.03
2022-09-13T07:37:02.344Z,99193.84
2022-09-13T07:39:30.552Z,99192.31
2022-09-13T07:41:58.583Z,99203.41
2022-09-13T07:44:26.718Z,99191.59
2022-09-13T07:46:54.994Z,99193.44
2022-09-13T07:49:23.410Z,99191.09
2022-09-13T07:51:53.234Z,99189.97
2022-09-13T07:54:21.777Z,99191.56
2022-09-13T07:56:51.828Z,99189.66
2022-09-13T07:59:20.718Z,99200.69
2022-09-13T08:01:50.241Z,99190.88
2022-09-13T08:04:22.529Z,99189.59
2022-09-13T08:06:50.813Z,99188.22
2022-09-13T08:09:20.833Z,99200.41
2022-09-13T08:11:53.410Z,99192.25
2022-09-13T08:14:23.725Z,99175.50
2022-09-13T08:16:52.484Z,99185.22
2022-09-13T08:19:20.592Z,99187.38
2022-09-13T08:21:49.141Z,99180.25
2022-09-13T08:24:21.276Z,99189.19
2022-09-13T08:26:52.146Z,99172.63
2022-09-13T08:29:20.648Z,99186.03
2022-09-13T08:31:48.736Z,99185.56
2022-09-13T08:34:18.311Z,99182.69
2022-09-13T08:36:46.595Z,99175.47
2022-09-13T08:39:14.849Z,99178.28
2022-09-13T08:42:13.484Z,99184.69
2022-09-13T08:44:47.023Z,99173.03
2022-09-13T08:47:28.288Z,99173.91
2022-09-13T08:50:05.168Z,99185.94
2022-09-13T08:52:36.897Z,99178.31
2022-09-13T08:55:19.475Z,99178.75
2022-09-13T08:57:54.670Z,99176.88
2022-09-13T09:00:29.104Z,99176.09
2022-09-13T09:03:31.215Z,99176.44
2022-09-13T09:05:59.246Z,99174.09
2022-09-13T09:08:34.005Z,99163.00
2022-09-13T09:11:07.696Z,99167.31
2022-09-13T09:13:42.588Z,99166.38
2022-09-13T09:16:31.650Z,99169.38
2022-09-13T09:19:08.505Z,99177.06
2022-09-13T09:21:37.631Z,99170.31
2022-09-13T09:24:07.657Z,99166.50
2022-09-13T09:26:35.678Z,99162.88
2022-09-13T09:29:13.935Z,99160.50
2022-09-13T09:31:51.570Z,99152.53
2022-09-13T09:34:27.925Z,99156.22
2022-09-13T09:37:05.951Z,99153.22
2022-09-13T09:39:39.136Z,99161.75
2022-09-13T09:42:14.499Z,99159.19
2022-09-13T09:44:46.367Z,99164.81
2022-09-13T09:47:18.572Z,99165.59
2022-09-13T09:50:06.481Z,99159.63
2022-09-13T09:52:40.898Z,99171.66
2022-09-13T09:55:18.301Z,99165.34
2022-09-13T09:57:52.251Z,99159.47
2022-09-13T10:00:24.508Z,99171.06
2022-09-13T10:02:55.605Z,99158.34
2022-09-13T10:05:26.413Z,99169.25
2022-09-13T10:07:56.785Z,99160.81
2022-09-13T10:10:29.806Z,99165.31
2022-09-13T10:12:59.654Z,99159.59
2022-09-13T10:15:33.791Z,99155.16
2022-09-13T10:18:04.064Z,99151.41
2022-09-13T10:20:35.246Z,99153.72
2022-09-13T10:23:13.007Z,99150.75
2022-09-13T10:25:45.911Z,99148.28
2022-09-13T10:28:19.324Z,99140.50
2022-09-13T10:30:54.220Z,99137.09
2022-09-13T10:33:28.604Z,99125.97
2022-09-13T10:35:59.022Z,99124.91
2022-09-13T10:38:32.099Z,99113.88
2022-09-13T10:41:03.425Z,99122.53
2022-09-13T10:43:33.060Z,99111.44
2022-09-13T10:46:05.955Z,99108.25
2022-09-13T10:48:46.836Z,99113.84
2022-09-13T10:51:32.925Z,99112.63
2022-09-13T10:54:18.735Z,99104.44
2022-09-13T10:56:47.492Z,99106.19
2022-09-13T10:59:18.503Z,99107.28
2022-09-13T11:01:58.943Z,99107.28
2022-09-13T11:04:58.386Z,99102.50
2022-09-13T11:07:51.354Z,99097.56
2022-09-13T11:10:28.731Z,99098.38
2022-09-13T11:13:07.579Z,99097.50
2022-09-13T11:15:51.868Z,99090.69
2022-09-13T11:18:54.890Z,99089.25
2022-09-13T11:21:37.382Z,99085.13
2022-09-13T11:24:39.033Z,99084.31
2022-09-13T11:27:16.284Z,99081.75
2022-09-13T11:29:57.586Z,99074.09
2022-09-13T11:32:37.173Z,99072.91
2022-09-13T11:35:30.206Z,99067.31
2022-09-13T11:38:14.800Z,99065.16
2022-09-13T11:40:55.112Z,99077.13
2022-09-13T11:43:40.109Z,99072.13
2022-09-13T11:46:17.412Z,99075.09
2022-09-13T11:49:18.368Z,99065.03
2022-09-13T11:51:57.218Z,99059.31
2022-09-13T11:54:40.554Z,99063.78
2022-09-13T11:57:13.144Z,99054.72
2022-09-13T11:59:46.885Z,99066.41
2022-09-13T12:02:21.711Z,99064.41
2022-09-13T12:05:20.546Z,99061.31
2022-09-13T12:07:48.033Z,99066.44
2022-09-13T12:10:23.376Z,99074.16
2022-09-13T12:12:53.839Z,99065.06
2022-09-13T12:15:28.428Z,99069.03
2022-09-13T12:18:01.830Z,99068.59
2022-09-13T12:20:35.352Z,99067.66
2022-09-13T12:23:07.427Z,99074.53
2022-09-13T12:25:47.388Z,99063.34
2022-09-13T12:28:22.243Z,99066.84
2022-09-13T12:30:56.887Z,99060.97
2022-09-13T12:33:25.115Z,99073.75
2022-09-13T12:36:08.747Z,99056.88
2022-09-13T12:38:56.022Z,99065.09
2022-09-13T12:41:41.854Z,99066.34
2022-09-13T12:44:33.764Z,99061.41
2022-09-13T12:47:40.595Z,99055.59
2022-09-13T12:50:43.088Z,99050.06
2022-09-13T12:53:27.879Z,99048.94
2022-09-13T12:56:20.565Z,99056.63
2022-09-13T12:59:21.789Z,99054.44
2022-09-13T13:01:52.331Z,99046.47
2022-09-13T13:04:23.791Z,99049.25
2022-09-13T13:06:55.176Z,99053.56
2022-09-13T13:09:29.622Z,99050.16
2022-09-13T13:11:59.935Z,99055.28
2022-09-13T13:14:53.326Z,99058.38
2022-09-13T13:17:42.771Z,99060.06
2022-09-13T13:21:04.738Z,99056.19
2022-09-13T13:23:35.697Z,99049.72
2022-09-13T13:26:10.709Z,99051.44
2022-09-13T13:29:09.668Z,99046.50
2022-09-13T13:31:41.948Z,99056.22
2022-09-13T13:34:30.693Z,99049.94
2022-09-13T13:37:02.356Z,99056.53
2022-09-13T13:39:39.979Z,99061.34
2022-09-13T13:42:25.773Z,99060.25
2022-09-13T13:45:17.822Z,99058.41
2022-09-13T13:48:20.848Z,99061.22
2022-09-13T13:51:16.349Z,99055.63
2022-09-13T13:53:50.051Z,99064.53
2022-09-13T13:56:30.091Z,99066.53
2022-09-13T13:59:04.834Z,99070.22
2022-09-13T14:01:35.792Z,99065.00
2022-09-13T14:04:48.793Z,99070.72
2022-09-13T14:07:32.418Z,99068.13
2022-09-13T14:10:07.178Z,99073.81
2022-09-13T14:12:48.306Z,99070.13
2022-09-13T14:15:39.116Z,99070.44
2022-09-13T14:18:39.440Z,99071.66
2022-09-13T14:21:21.353Z,99062.41
2022-09-13T14:23:51.174Z,99066.09
2022-09-13T14:26:19.223Z,99061.63
2022-09-13T14:28:47.358Z,99071.97
2022-09-13T14:31:20.447Z,99079.38
2022-09-13T14:33:48.795Z,99079.06
2022-09-13T14:36:20.214Z,99079.53
2022-09-13T14:38:55.262Z,99079.72
2022-09-13T14:41:32.733Z,99087.09
2022-09-13T14:44:22.481Z,99079.19
2022-09-13T14:46:57.064Z,99075.03
2022-09-13T14:49:27.649Z,99084.25
2022-09-13T14:51:59.011Z,99083.34
2022-09-13T14:54:34.968Z,99075.63
2022-09-13T14:57:04.721Z,99087.34
2022-09-13T14:59:37.498Z,99085.94
2022-09-13T15:02:17.290Z,99078.38
2022-09-13T15:04:52.970Z,99083.16
2022-09-13T15:07:25.400Z,99074.78
2022-09-13T15:10:00.712Z,99081.72
2022-09-13T15:12:30.081Z,99077.84
2022-09-13T15:15:22.881Z,99082.50
2022-09-13T15:17:55.829Z,99074.44
2022-09-13T15:20:24.843Z,99078.88
2022-09-13T15:22:53.950Z,99070.72
2022-09-13T15:25:27.637Z,99071.16
2022-09-13T15:27:57.211Z,99077.31
2022-09-13T15:30:28.644Z,99082.88
2022-09-13T15:33:20.801Z,99075.00
2022-09-13T15:35:49.397Z,99080.84
2022-09-13T15:38:25.820Z,99084.50
2022-09-13T15:41:03.657Z,99088.31
2022-09-13T15:43:32.532Z,99090.91
2022-09-13T15:46:03.083Z,99089.03
2022-09-13T15:48:33.670Z,99093.50
2022-09-13T15:51:12.666Z,99093.03
2022-09-13T15:53:43.368Z,99092.34
2022-09-13T15:56:17.145Z,99098.00
2022-09-13T15:58:45.560Z,99099.50
2022-09-13T16:01:15.208Z,99097.56
2022-09-13T16:03:43.385Z,99097.94
2022-09-13T16:06:14.403Z,99109.56
2022-09-13T16:08:42.589Z,99109.72
2022-09-13T16:11:13.090Z,99103.31
2022-09-13T16:13:41.529Z,99111.88
2022-09-13T16:16:23.830Z,99113.69
2022-09-13T16:26:35.760Z,99105.47
2022-09-13T16:29:04.137Z,99117.50
2022-09-13T16:31:32.331Z,99114.22
2022-09-13T16:34:00.548Z,99117.31
2022-09-13T16:36:29.015Z,99115.66
2022-09-13T16:38:57.021Z,99112.44
2022-09-13T16:41:25.418Z,99112.78
2022-09-13T16:43:55.941Z,99112.19
2022-09-13T16:46:24.088Z,99122.78
2022-09-13T16:48:55.382Z,99120.00
2022-09-13T16:51:24.136Z,99128.13
2022-09-13T16:53:53.955Z,99127.59
2022-09-13T16:56:24.597Z,99123.78
2022-09-13T16:58:55.190Z,99123.31
2022-09-13T17:01:25.572Z,99123.97
2022-09-13T17:03:55.457Z,99138.78
2022-09-13T17:06:25.453Z,99138.97
2022-09-13T17:08:55.696Z,99144.66
2022-09-13T17:11:26.516Z,99149.16
2022-09-13T17:13:56.857Z,99149.69
2022-09-13T17:16:28.534Z,99148.22
2022-09-13T17:19:00.847Z,99152.69
2022-09-13T17:21:29.989Z,99154.34
2022-09-13T17:23:58.147Z,99154.78
2022-09-13T17:26:26.761Z,99161.56
2022-09-13T17:28:56.253Z,99162.44
2022-09-13T17:31:24.466Z,99169.59
2022-09-13T17:33:53.324Z,99176.66
2022-09-13T17:36:21.976Z,99180.25
2022-09-13T17:38:50.390Z,99181.97
2022-09-13T17:41:20.487Z,99188.84
2022-09-13T17:43:48.828Z,99184.31
2022-09-13T17:46:21.797Z,99194.28
2022-09-13T17:48:51.181Z,99202.19
2022-09-13T17:51:20.593Z,99201.97
2022-09-13T17:53:50.954Z,99202.97
2022-09-13T17:56:20.208Z,99208.22
2022-09-13T17:58:48.541Z,99218.22
2022-09-13T18:01:18.597Z,99221.06
2022-09-13T18:03:47.030Z,99223.94
2022-09-13T18:06:16.572Z,99224.88
2022-09-13T18:08:44.600Z,99230.38
2022-09-13T18:11:22.186Z,99236.31
2022-09-13T18:13:52.170Z,99236.94
2022-09-13T18:16:25.056Z,99236.44
2022-09-13T18:18:55.040Z,99241.56
2022-09-13T18:21:25.827Z,99249.53
2022-09-13T18:23:55.648Z,99257.38
2022-09-13T18:26:25.110Z,99259.81
2022-09-13T18:28:57.955Z,99259.63
2022-09-13T18:31:27.608Z,99264.09
2022-09-13T18:33:58.058Z,99274.25
2022-09-13T18:36:26.973Z,99262.63
2022-09-13T18:38:56.125Z,99269.78
2022-09-13T18:41:27.177Z,99268.34
2022-09-13T18:43:56.786Z,99272.38
2022-09-13T18:46:28.566Z,99277.56
2022-09-13T18:48:58.286Z,99279.59
2022-09-13T18:51:28.755Z,99280.34
2022-09-13T18:53:58.687Z,99276.06
2022-09-13T18:56:27.963Z,99280.81
2022-09-13T18:58:57.436Z,99276.16
2022-09-13T19:01:29.579Z,99275.44
2022-09-13T19:03:59.401Z,99290.72
2022-09-13T19:06:28.983Z,99288.97
2022-09-13T19:09:00.275Z,99284.69
2022-09-13T19:11:45.951Z,99277.34
2022-09-13T19:14:15.160Z,99282.84
2022-09-13T19:16:44.829Z,99277.44
2022-09-13T19:19:13.047Z,99286.97
2022-09-13T19:21:41.268Z,99297.28
2022-09-13T19:24:16.228Z,99292.13
2022-09-13T19:26:46.218Z,99291.34
2022-09-13T19:29:16.284Z,99289.44
2022-09-13T19:31:48.456Z,99293.84
2022-09-13T19:34:17.633Z,99300.97
2022-09-13T19:36:46.251Z,99298.25
2022-09-13T19:39:15.487Z,99308.78
2022-09-13T19:41:43.458Z,99289.50
2022-09-13T19:44:13.884Z,99294.22
2022-09-13T19:46:42.696Z,99295.84
2022-09-13T19:49:16.210Z,99296.22
2022-09-13T19:51:50.158Z,99285.72
2022-09-13T19:54:20.629Z,99305.03
2022-09-13T19:56:48.707Z,99297.66
2022-09-13T19:59:20.584Z,99298.88
2022-09-13T20:01:49.691Z,99290.38
2022-09-13T20:04:21.560Z,99292.78
2022-09-13T20:06:51.167Z,99297.50
2022-09-13T20:09:21.009Z,99292.44
2022-09-13T20:11:50.234Z,99296.41
2022-09-13T20:14:20.413Z,99293.34
2022-09-13T20:16:48.944Z,99298.88
2022-09-13T20:22:08.920Z,99298.94
2022-09-13T20:24:40.195Z,99302.06
2022-09-13T20:27:08.621Z,99304.41
2022-09-13T20:29:36.974Z,99302.81
2022-09-13T20:32:05.238Z,99303.69
2022-09-13T20:34:37.916Z,99301.75
2022-09-13T20:37:07.416Z,99299.06
2022-09-13T20:39:38.326Z,99315.13
2022-09-13T20:42:06.786Z,99306.50
2022-09-13T20:44:35.040Z,99324.53
2022-09-13T20:47:03.115Z,99319.41
2022-09-13T20:49:31.195Z,99318.66
2022-09-13T20:52:01.030Z,99315.53
2022-09-13T20:54:29.280Z,99311.25
2022-09-13T20:56:58.691Z,99304.25
2022-09-13T20:59:26.695Z,99315.97
2022-09-13T21:01:54.996Z,99315.13
2022-09-13T21:04:23.408Z,99310.09
2022-09-13T21:07:13.750Z,99305.47
2022-09-13T21:09:44.237Z,99304.25
2022-09-13T21:12:12.558Z,99311.81
2022-09-13T21:14:40.548Z,99310.63
2022-09-13T21:17:08.819Z,99317.28
2022-09-13T21:19:36.985Z,99305.63
2022-09-13T21:22:05.098Z,99307.59
2022-09-13T21:24:33.187Z,99313.03
2022-09-13T21:27:02.750Z,99310.38
2022-09-13T21:29:48.292Z,99319.41
2022-09-13T21:32:16.490Z,99314.00
2022-09-13T21:34:44.625Z,99309.59
2022-09-13T21:37:13.970Z,99312.34
2022-09-13T21:39:42.030Z,99296.75
2022-09-13T21:42:11.527Z,99306.53
2022-09-13T21:44:39.845Z,99308.53
2022-09-13T21:47:08.192Z,99300.75
2022-09-13T21:49:36.283Z,99302.69
2022-09-13T21:52:04.716Z,99296.06
2022-09-13T21:54:33.125Z,99308.16
2022-09-13T21:57:01.193Z,99309.31
2022-09-13T21:59:30.767Z,99303.53
2022-09-13T22:01:59.309Z,99311.38
2022-09-13T22:04:27.749Z,99313.75
2022-09-13T22:06:56.154Z,99313.00
2022-09-13T22:09:27.704Z,99309.84
2022-09-13T22:11:56.633Z,99308.66
2022-09-13T22:14:25.159Z,99302.03
2022-09-13T22:16:54.827Z,99306.72
2022-09-13T22:19:25.625Z,99315.38
2022-09-13T22:21:56.527Z,99320.81
2022-09-13T22:24:27.318Z,99314.53
2022-09-13T22:26:58.307Z,99319.25
2022-09-13T22:29:27.490Z,99318.50
2022-09-13T22:31:57.347Z,99323.97
2022-09-13T22:34:30.761Z,99325.16
2022-09-13T22:36:59.418Z,99325.19
2022-09-13T22:39:27.907Z,99320.47
2022-09-13T22:41:56.016Z,99327.16
2022-09-13T22:44:24.197Z,99320.88
2022-09-13T22:46:52.425Z,99318.16
2022-09-13T22:49:21.964Z,99321.28
2022-09-13T22:51:50.942Z,99322.13
2022-09-13T22:54:20.837Z,99324.88
2022-09-13T22:56:49.768Z,99320.59
2022-09-13T22:59:19.564Z,99323.31
2022-09-13T23:01:48.399Z,99321.34
2022-09-13T23:04:17.629Z,99324.50
2022-09-13T23:06:47.413Z,99331.94
2022-09-13T23:09:18.909Z,99323.34
2022-09-13T23:11:48.159Z,99317.09
2022-09-13T23:14:20.023Z,99321.38
2022-09-13T23:16:50.414Z,99309.28
2022-09-13T23:19:20.201Z,99317.91
2022-09-13T23:21:49.933Z,99317.94
2022-09-13T23:24:19.701Z,99317.13
2022-09-13T23:26:48.300Z,99309.31
2022-09-13T23:29:17.979Z,99310.88
2022-09-13T23:31:47.584Z,99317.16
2022-09-13T23:34:16.479Z,99321.09
2022-09-13T23:36:45.406Z,99312.13
2022-09-13T23:39:17.617Z,99321.47
2022-09-13T23:41:48.335Z,99313.28
2022-09-13T23:44:17.511Z,99324.63
2022-09-13T23:46:46.053Z,99329.31
2022-09-13T23:49:14.132Z,99323.44
2022-09-13T23:51:42.425Z,99329.72
2022-09-13T23:54:11.192Z,99328.97
2022-09-13T23:56:40.869Z,99330.91
2022-09-13T23:59:09.028Z,99329.34
